Time;durP1;ratioP1;P1;durP2;ratioP2;P2;SDS_P1;SDS_P2;PMS_P1;PMS_P2;Temp;Humidity;BMP_temperature;BMP_pressure;BME280_temperature;BME280_humidity;BME280_pressure;Samples;Min_cycle;Max_cycle;Signal;HPM_P1;HPM_P2
2023/05/16 00:02:19;;;;;;;6.35;4.10;;;;;;;11.37;67.00;97261.75;10433735;28;20128;-67
2023/05/16 00:07:41;;;;;;;8.43;4.47;;;;;;;11.36;66.74;97262.38;10461450;28;20044;-67
2023/05/16 00:13:02;;;;;;;7.60;3.90;;;;;;;11.33;67.23;97272.72;10446559;28;20041;-67
2023/05/16 00:18:24;;;;;;;5.80;3.85;;;;;;;11.33;67.27;97280.38;10460709;28;20115;-69
2023/05/16 00:23:45;;;;;;;8.45;4.40;;;;;;;11.31;67.45;97266.28;10445836;28;20118;-68
2023/05/16 00:29:06;;;;;;;8.80;4.32;;;;;;;11.28;67.51;97278.66;10445634;28;20076;-69
2023/05/16 00:34:26;;;;;;;6.45;4.18;;;;;;;11.25;67.34;97289.00;10460385;28;20164;-68
2023/05/16 00:39:48;;;;;;;8.02;4.10;;;;;;;11.16;67.49;97281.50;10445500;28;20124;-68
2023/05/16 00:45:09;;;;;;;5.13;3.75;;;;;;;11.13;67.77;97282.72;10445247;28;20069;-68
2023/05/16 00:50:29;;;;;;;8.38;4.25;;;;;;;11.09;68.30;97288.78;10459894;28;20116;-67
2023/05/16 00:55:50;;;;;;;5.90;3.90;;;;;;;11.06;68.60;97278.84;10431134;28;20463;-67
2023/05/16 01:01:11;;;;;;;6.95;4.53;;;;;;;11.05;68.50;97288.56;10430866;28;20126;-67
2023/05/16 01:06:32;;;;;;;9.63;4.55;;;;;;;11.01;68.66;97291.13;10416953;28;20133;-67
2023/05/16 01:12:20;;;;;;;7.18;4.53;;;;;;;10.99;69.23;97279.81;10444201;28;20116;-67
2023/05/16 01:17:56;;;;;;;7.53;4.55;;;;;;;10.94;69.18;97292.09;10417694;28;20083;-67
2023/05/16 01:23:39;;;;;;;5.93;4.28;;;;;;;10.91;69.50;97295.41;10458635;28;20175;-68
2023/05/16 01:29:00;;;;;;;7.85;4.57;;;;;;;10.88;69.19;97297.31;10430462;28;20443;-68
2023/05/16 01:34:21;;;;;;;7.10;4.50;;;;;;;10.85;69.30;97293.69;10429111;28;20120;-67
2023/05/16 01:39:49;;;;;;;5.93;4.53;;;;;;;10.83;69.57;97296.38;10442999;28;20116;-67
2023/05/16 01:45:17;;;;;;;6.90;4.85;;;;;;;10.80;69.65;97300.34;10429229;28;20060;-68
2023/05/16 01:50:42;;;;;;;7.93;5.32;;;;;;;10.75;69.52;97289.56;10429882;28;20041;-67
2023/05/16 01:56:03;;;;;;;10.82;5.15;;;;;;;10.71;70.15;97292.09;10414919;28;20116;-67
2023/05/16 02:01:23;;;;;;;7.47;4.40;;;;;;;10.70;70.63;97290.66;10428340;28;20119;-68
2023/05/16 02:06:44;;;;;;;11.52;4.80;;;;;;;10.77;70.69;97284.84;10428263;28;20112;-67
2023/05/16 02:12:05;;;;;;;9.95;5.43;;;;;;;10.79;70.70;97289.81;10442021;28;20548;-68
2023/05/16 02:17:26;;;;;;;10.10;5.70;;;;;;;10.77;70.69;97306.44;10428018;28;20112;-68
2023/05/16 02:22:48;;;;;;;8.57;5.85;;;;;;;10.76;70.89;97302.91;10456478;28;20128;-68
2023/05/16 02:28:09;;;;;;;5.70;4.45;;;;;;;10.71;70.92;97323.56;10428596;28;20045;-67
2023/05/16 02:33:29;;;;;;;6.85;4.90;;;;;;;10.66;71.04;97319.06;10441427;28;20037;-68
2023/05/16 02:38:50;;;;;;;7.00;4.80;;;;;;;10.64;71.26;97321.75;10456310;28;20126;-67
2023/05/16 02:44:11;;;;;;;6.72;4.40;;;;;;;10.66;71.57;97298.78;10445557;28;20049;-68
2023/05/16 02:49:31;;;;;;;9.57;5.00;;;;;;;10.66;71.68;97312.75;10449624;28;20431;-67
2023/05/16 02:54:53;;;;;;;9.02;5.10;;;;;;;10.59;71.34;97287.25;10449353;28;20598;-68
2023/05/16 03:00:17;;;;;;;6.53;5.22;;;;;;;10.54;71.65;97310.69;10464324;28;20509;-68
2023/05/16 03:05:38;;;;;;;9.85;5.28;;;;;;;10.56;71.74;97326.81;10463884;28;20063;-68
2023/05/16 03:10:59;;;;;;;6.18;4.85;;;;;;;10.54;71.66;97326.72;10463643;28;20171;-67
2023/05/16 03:16:20;;;;;;;7.70;5.00;;;;;;;10.52;72.01;97332.91;10463736;28;20087;-67
2023/05/16 03:21:40;;;;;;;8.32;5.10;;;;;;;10.57;71.93;97331.78;10463401;28;20131;-67
2023/05/16 03:27:03;;;;;;;7.60;5.35;;;;;;;10.62;71.99;97338.38;10448335;28;20112;-67
2023/05/16 03:32:24;;;;;;;7.25;5.47;;;;;;;10.68;72.18;97338.72;10448690;28;20120;-67
2023/05/16 03:37:44;;;;;;;7.50;5.28;;;;;;;10.73;71.97;97346.00;10448047;28;20128;-67
2023/05/16 03:43:05;;;;;;;8.15;5.30;;;;;;;10.85;71.78;97359.97;10420766;28;20464;-68
2023/05/16 03:48:25;;;;;;;7.10;4.75;;;;;;;10.97;71.69;97371.88;10462280;28;20116;-68
2023/05/16 03:53:46;;;;;;;7.03;5.43;;;;;;;11.06;71.66;97368.22;10447081;28;20065;-68
2023/05/16 03:59:07;;;;;;;6.65;5.63;;;;;;;11.23;71.68;97374.78;10461879;28;20183;-68
2023/05/16 04:04:28;;;;;;;7.03;5.60;;;;;;;11.38;71.29;97383.38;10447309;28;20128;-68
2023/05/16 04:09:48;;;;;;;5.63;4.93;;;;;;;11.60;71.34;97388.81;10461422;28;20115;-68
2023/05/16 04:15:09;;;;;;;9.00;5.32;;;;;;;11.85;71.00;97385.34;10432410;28;20147;-68
2023/05/16 04:20:30;;;;;;;7.35;5.03;;;;;;;12.13;70.46;97397.41;10446425;28;20151;-68
2023/05/16 04:25:54;;;;;;;8.82;4.75;;;;;;;12.46;70.16;97394.34;10445840;28;20055;-68
2023/05/16 04:31:14;;;;;;;7.95;5.13;;;;;;;12.79;69.58;97403.13;10460598;28;20076;-67
2023/05/16 04:36:36;;;;;;;8.35;5.55;;;;;;;13.11;69.35;97400.56;10460385;28;20147;-67
2023/05/16 04:41:58;;;;;;;6.10;4.72;;;;;;;13.50;68.98;97402.56;10445584;28;20041;-67
2023/05/16 04:47:18;;;;;;;7.55;5.13;;;;;;;13.95;68.11;97417.47;10445229;28;20037;-67
2023/05/16 04:52:39;;;;;;;7.72;4.93;;;;;;;14.24;66.81;97413.25;10459859;28;20126;-67
2023/05/16 04:58:00;;;;;;;5.53;4.97;;;;;;;14.71;66.57;97407.03;10444701;28;20112;-68
2023/05/16 05:03:20;;;;;;;8.13;4.97;;;;;;;15.24;65.82;97409.38;10444760;28;20163;-68
2023/05/16 05:08:41;;;;;;;9.65;6.43;;;;;;;15.42;64.83;97424.97;10444050;28;20155;-68
2023/05/16 05:14:02;;;;;;;6.32;5.00;;;;;;;15.70;64.28;97425.50;10443955;28;20045;-68
2023/05/16 05:19:23;;;;;;;5.78;4.72;;;;;;;16.03;63.92;97418.41;10430330;28;20379;-68
2023/05/16 05:24:43;;;;;;;8.35;5.38;;;;;;;16.48;63.13;97426.53;10458355;28;20171;-68
2023/05/16 05:30:07;;;;;;;10.07;5.15;;;;;;;17.00;61.88;97412.34;10458360;28;20111;-68
2023/05/16 05:35:28;;;;;;;9.18;5.20;;;;;;;17.47;61.15;97411.94;10458020;28;20117;-69
2023/05/16 05:40:48;;;;;;;8.52;4.93;;;;;;;18.28;59.77;97402.66;10442722;28;20133;-68
2023/05/16 05:46:09;;;;;;;6.85;4.88;;;;;;;19.36;58.34;97408.72;10457613;28;20171;-68
2023/05/16 05:51:30;;;;;;;8.85;5.03;;;;;;;20.07;55.96;97407.75;10442601;28;20120;-68
2023/05/16 05:56:50;;;;;;;9.57;4.85;;;;;;;20.97;54.49;97401.38;10428248;28;20507;-68
2023/05/16 06:02:11;;;;;;;7.03;4.30;;;;;;;21.52;52.49;97414.59;10456811;28;20049;-68
2023/05/16 06:07:32;;;;;;;7.05;4.60;;;;;;;21.53;50.86;97403.94;10428465;28;20471;-67
2023/05/16 06:12:53;;;;;;;7.15;5.00;;;;;;;21.59;49.39;97399.06;10441681;28;20128;-68
2023/05/16 06:18:13;;;;;;;8.13;5.03;;;;;;;21.81;45.77;97417.94;10427454;28;20116;-67
2023/05/16 06:23:34;;;;;;;8.15;4.78;;;;;;;21.94;45.26;97417.47;10456537;28;20460;-68
2023/05/16 06:28:55;;;;;;;8.63;5.47;;;;;;;22.71;43.34;97406.66;10456465;28;20064;-68
2023/05/16 06:34:16;;;;;;;7.85;4.60;;;;;;;23.22;41.03;97404.50;10456387;28;20133;-67
2023/05/16 06:39:37;;;;;;;6.93;4.65;;;;;;;22.92;39.31;97424.75;10441071;28;20068;-67
2023/05/16 06:44:58;;;;;;;6.70;4.55;;;;;;;22.77;38.71;97420.22;10441321;28;20072;-67
2023/05/16 06:50:18;;;;;;;7.63;4.95;;;;;;;23.22;38.18;97432.97;10441205;28;20515;-68
2023/05/16 06:55:39;;;;;;;5.28;4.70;;;;;;;23.25;37.67;97425.88;10455797;28;20478;-68
2023/05/16 07:01:00;;;;;;;10.55;5.15;;;;;;;23.45;36.95;97419.75;10441132;28;20045;-68
2023/05/16 07:06:20;;;;;;;7.63;4.97;;;;;;;24.49;36.34;97424.34;10455367;28;20088;-68
2023/05/16 07:11:41;;;;;;;11.50;5.97;;;;;;;24.07;35.50;97426.81;10440921;28;20111;-68
2023/05/16 07:17:02;;;;;;;6.13;4.88;;;;;;;25.39;36.28;97439.91;10426834;28;20060;-68
2023/05/16 07:22:23;;;;;;;10.07;6.63;;;;;;;26.38;34.01;97438.72;10455457;28;20060;-68
2023/05/16 07:27:45;;;;;;;;;;;;;;;26.83;32.99;97441.56;10455819;28;20452;-69
2023/05/16 07:33:06;;;;;;;6.70;5.50;;;;;;;26.96;31.48;97434.38;10463038;28;20007;-67
2023/05/16 07:38:27;;;;;;;10.23;5.20;;;;;;;26.40;31.96;97435.88;10448175;28;20068;-69
2023/05/16 07:43:48;;;;;;;6.80;5.53;;;;;;;26.52;32.16;97438.72;10462471;28;20506;-68
2023/05/16 07:49:08;;;;;;;8.00;5.05;;;;;;;27.14;29.97;97447.25;10462584;28;20480;-68
2023/05/16 07:54:30;;;;;;;9.15;5.95;;;;;;;26.95;29.72;97453.00;10461959;28;20116;-68
2023/05/16 07:59:51;;;;;;;6.18;5.47;;;;;;;26.89;30.04;97463.75;10462109;28;20068;-68
2023/05/16 08:05:12;;;;;;;8.15;5.18;;;;;;;26.22;30.42;97462.28;10446597;28;20095;-68
2023/05/16 08:10:33;;;;;;;10.73;5.45;;;;;;;27.53;29.30;97467.91;10432790;28;20478;-68
2023/05/16 08:15:53;;;;;;;9.18;5.70;;;;;;;29.59;27.11;97475.66;10446538;28;20120;-68
2023/05/16 08:21:15;;;;;;;8.65;5.22;;;;;;;29.96;26.88;97487.44;10460979;28;20037;-68
2023/05/16 08:26:37;;;;;;;7.65;5.47;;;;;;;28.54;27.26;97501.06;10446247;28;20049;-68
2023/05/16 08:31:58;;;;;;;9.13;6.10;;;;;;;27.83;28.97;97498.63;10445656;28;20041;-68
2023/05/16 08:37:19;;;;;;;5.83;4.87;;;;;;;28.54;29.08;97488.88;10445865;28;20495;-69
2023/05/16 08:42:40;;;;;;;9.27;6.15;;;;;;;29.05;27.10;97503.56;10460109;28;20124;-68
2023/05/16 08:48:03;;;;;;;7.38;5.50;;;;;;;28.03;28.58;97509.28;10445536;28;20116;-68
2023/05/16 08:53:31;;;;;;;9.52;5.60;;;;;;;28.38;28.68;97510.53;10431466;28;20073;-68
2023/05/16 08:58:54;;;;;;;7.72;6.20;;;;;;;28.02;27.94;97505.69;10444854;28;20095;-68
2023/05/16 09:04:15;;;;;;;8.90;5.88;;;;;;;27.64;29.66;97495.09;10444634;28;20053;-69
2023/05/16 09:09:35;;;;;;;11.35;6.10;;;;;;;28.85;28.04;97515.88;10416408;28;20106;-68
2023/05/16 09:14:57;;;;;;;10.57;6.60;;;;;;;27.50;28.47;97518.06;10458927;28;20399;-68
2023/05/16 09:20:18;;;;;;;7.65;6.85;;;;;;;25.84;31.09;97514.38;10443760;28;20064;-68
2023/05/16 09:25:39;;;;;;;11.10;6.97;;;;;;;25.56;32.28;97523.53;10458637;28;20048;-68
2023/05/16 09:31:01;;;;;;;13.00;8.18;;;;;;;24.25;33.85;97527.50;10416238;28;20041;-69
2023/05/16 09:36:22;;;;;;;9.90;7.20;;;;;;;23.19;36.06;97519.78;10443345;28;20146;-69
2023/05/16 09:41:42;;;;;;;14.45;7.85;;;;;;;23.48;37.24;97506.63;10457941;28;20088;-69
2023/05/16 09:47:03;;;;;;;7.00;6.30;;;;;;;23.91;36.29;97507.88;10457607;28;20395;-68
2023/05/16 09:52:26;;;;;;;10.00;6.72;;;;;;;23.74;36.59;97511.25;10457054;28;20384;-69
2023/05/16 09:57:46;;;;;;;22.15;8.38;;;;;;;25.02;35.32;97509.66;10442477;28;20384;-68
2023/05/16 10:03:07;;;;;;;8.20;7.03;;;;;;;25.69;33.52;97513.59;10442402;28;20140;-68
2023/05/16 10:08:28;;;;;;;10.93;7.53;;;;;;;25.31;32.49;97505.56;10442173;28;20060;-69
2023/05/16 10:13:51;;;;;;;9.45;6.60;;;;;;;24.86;33.10;97498.81;10441889;28;20041;-69
2023/05/16 10:19:13;;;;;;;8.75;7.65;;;;;;;24.64;32.88;97485.09;10442097;28;20060;-69
2023/05/16 10:24:57;;;;;;;9.63;7.15;;;;;;;23.38;34.45;97484.44;10427843;28;20080;-68
2023/05/16 10:30:18;;;;;;;9.27;7.60;;;;;;;23.25;35.75;97488.53;10443250;28;20037;-68
2023/05/16 10:35:39;;;;;;;10.50;8.02;;;;;;;23.03;36.56;97480.41;10413828;28;20136;-68
2023/05/16 10:41:00;;;;;;;10.18;8.23;;;;;;;21.97;38.48;97486.41;10441145;28;20108;-68
2023/05/16 10:46:21;;;;;;;10.55;7.53;;;;;;;21.80;39.90;97487.50;10441204;28;20125;-68
2023/05/16 10:51:42;;;;;;;10.02;8.60;;;;;;;21.57;40.62;97483.53;10455878;28;20068;-68
2023/05/16 10:57:24;;;;;;;10.57;7.90;;;;;;;21.68;40.80;97476.63;10455743;28;20167;-68
2023/05/16 11:02:44;;;;;;;8.52;7.63;;;;;;;21.04;42.26;97445.50;10455732;28;20526;-68
2023/05/16 11:08:05;;;;;;;9.60;8.20;;;;;;;20.81;43.20;97456.34;10463802;28;20116;-68
2023/05/16 11:13:26;;;;;;;12.48;8.50;;;;;;;20.60;43.43;97465.06;10448734;28;20045;-68
2023/05/16 11:18:50;;;;;;;9.63;8.57;;;;;;;20.25;44.33;97450.00;10448572;28;20072;-67
2023/05/16 11:24:28;;;;;;;10.98;8.70;;;;;;;19.58;45.36;97470.91;10463210;28;20072;-68
2023/05/16 11:29:48;;;;;;;12.82;9.18;;;;;;;18.90;46.52;97468.19;10448307;28;20124;-68
2023/05/16 11:35:14;;;;;;;12.30;10.02;;;;;;;18.33;48.03;97477.66;10433997;28;20117;-68
2023/05/16 11:40:34;;;;;;;13.32;11.00;;;;;;;17.67;49.53;97486.03;10434736;28;20052;-67
2023/05/16 11:45:56;;;;;;;14.27;10.82;;;;;;;17.51;50.72;97507.28;10462332;28;20045;-68
2023/05/16 11:51:17;;;;;;;12.90;10.65;;;;;;;17.47;51.31;97521.97;10433336;28;20163;-67
2023/05/16 11:56:39;;;;;;;13.98;11.65;;;;;;;17.60;51.37;97531.59;10447054;28;20065;-67
2023/05/16 12:02:02;;;;;;;16.73;12.10;;;;;;;17.41;51.92;97550.66;10446756;28;20150;-67
2023/05/16 12:07:27;;;;;;;19.45;12.63;;;;;;;17.58;51.73;97556.94;10433079;28;20449;-67
2023/05/16 12:12:50;;;;;;;18.05;13.00;;;;;;;18.12;51.13;97566.66;10446326;28;20116;-68
2023/05/16 12:18:11;;;;;;;16.40;13.60;;;;;;;18.03;50.60;97554.34;10432722;28;20555;-67
2023/05/16 12:23:32;;;;;;;16.83;14.20;;;;;;;17.69;50.92;97576.44;10445947;28;20048;-67
2023/05/16 12:28:56;;;;;;;18.05;15.55;;;;;;;17.13;51.65;97580.59;10432501;28;20120;-68
2023/05/16 12:34:17;;;;;;;19.30;15.38;;;;;;;16.83;52.04;97585.75;10419560;28;20033;-68
2023/05/16 12:39:38;;;;;;;17.90;13.95;;;;;;;16.78;52.84;97582.03;10431805;28;20117;-68
2023/05/16 12:44:59;;;;;;;17.65;13.52;;;;;;;16.43;52.83;97579.88;10445674;28;20116;-68
2023/05/16 12:50:21;;;;;;;16.42;11.82;;;;;;;16.40;53.43;97588.88;10445266;28;20462;-68
2023/05/16 12:55:42;;;;;;;14.93;11.27;;;;;;;16.19;53.77;97585.19;10459787;28;20494;-68
2023/05/16 13:01:04;;;;;;;14.43;11.35;;;;;;;15.93;53.99;97570.00;10444742;28;20117;-68
2023/05/16 13:06:25;;;;;;;13.50;9.98;;;;;;;15.90;54.41;97566.34;10444782;28;20566;-68
2023/05/16 13:11:47;;;;;;;14.63;9.13;;;;;;;16.00;54.18;97552.72;10430917;28;20052;-68
2023/05/16 13:17:08;;;;;;;10.13;8.38;;;;;;;15.95;54.46;97558.81;10430425;28;20471;-67
2023/05/16 13:22:28;;;;;;;12.63;8.65;;;;;;;16.26;54.23;97555.94;10458828;28;20052;-68
2023/05/16 13:27:49;;;;;;;13.25;9.43;;;;;;;16.35;53.38;97559.09;10442736;28;20116;-68
2023/05/16 13:33:09;;;;;;;11.05;7.60;;;;;;;16.21;53.30;97562.03;10443329;28;20068;-68
2023/05/16 13:38:31;;;;;;;11.20;8.27;;;;;;;16.15;53.41;97567.41;10429352;28;20041;-67
2023/05/16 13:43:52;;;;;;;11.65;8.55;;;;;;;16.53;53.19;97580.31;10442634;28;20135;-68
2023/05/16 13:49:12;;;;;;;11.60;8.32;;;;;;;16.99;52.07;97575.16;10457790;28;20116;-68
2023/05/16 13:54:33;;;;;;;10.75;7.95;;;;;;;17.00;51.06;97592.78;10428427;28;20493;-67
2023/05/16 13:59:54;;;;;;;11.77;7.72;;;;;;;16.54;51.55;97614.84;10428641;28;20171;-68
2023/05/16 14:05:17;;;;;;;10.55;7.60;;;;;;;16.28;51.82;97603.16;10456987;28;20080;-70
2023/05/16 14:10:38;;;;;;;10.60;7.00;;;;;;;15.96;52.56;97574.34;10456929;28;20116;-69
2023/05/16 14:15:59;;;;;;;8.70;6.78;;;;;;;16.10;52.37;97572.13;10456595;28;20075;-68
2023/05/16 14:21:19;;;;;;;9.75;7.45;;;;;;;15.78;52.43;97576.34;10441749;28;20116;-68
2023/05/16 14:26:40;;;;;;;12.38;7.18;;;;;;;15.60;52.77;97587.47;10441636;28;20128;-71
2023/05/16 14:32:01;;;;;;;10.88;7.32;;;;;;;15.28;53.62;97579.00;10426355;28;20259;-69
2023/05/16 14:37:21;;;;;;;8.35;6.25;;;;;;;15.34;54.02;97593.34;10443978;28;20115;-70
2023/05/16 14:42:42;;;;;;;8.30;5.40;;;;;;;15.19;54.24;97588.44;10440964;28;20041;-70
2023/05/16 14:48:03;;;;;;;8.10;5.60;;;;;;;15.18;54.32;97598.94;10453788;28;20151;-70
2023/05/16 14:53:27;;;;;;;7.53;5.25;;;;;;;15.37;54.33;97614.59;10457876;28;20065;-73
2023/05/16 14:58:48;;;;;;;10.05;5.70;;;;;;;15.40;53.71;97612.59;10442667;28;20068;-76
2023/05/16 15:04:09;;;;;;;8.63;5.68;;;;;;;15.51;53.70;97622.22;10457652;28;20526;-75
2023/05/16 15:09:30;;;;;;;8.25;5.22;;;;;;;15.29;53.54;97614.22;10445610;28;20048;-75
2023/05/16 15:14:50;;;;;;;8.35;5.45;;;;;;;14.96;53.88;97603.50;10599256;22;20060;-71
2023/05/16 15:20:11;;;;;;;6.05;3.95;;;;;;;15.03;53.74;97610.88;10568920;28;20040;-81
2023/05/16 15:25:32;;;;;;;8.30;4.88;;;;;;;15.14;53.41;97624.03;10541901;28;20040;-81
2023/05/16 15:30:53;;;;;;;6.95;4.13;;;;;;;15.05;52.97;97629.91;10545284;28;20040;-77
2023/05/16 15:36:14;;;;;;;6.75;4.50;;;;;;;15.04;53.74;97617.22;10526016;28;20075;-70
2023/05/16 15:41:35;;;;;;;6.55;4.22;;;;;;;14.98;53.36;97634.53;10540597;28;20075;-71
2023/05/16 15:47:16;;;;;;;5.68;3.92;;;;;;;14.92;53.32;97639.13;10540510;28;20123;-74
2023/05/16 15:52:38;;;;;;;6.75;4.38;;;;;;;14.67;53.60;97637.94;10549982;28;20051;-72
2023/05/16 15:57:59;;;;;;;8.98;4.65;;;;;;;14.49;54.05;97639.81;10544261;28;20126;-71
2023/05/16 16:03:20;;;;;;;5.65;3.90;;;;;;;14.44;55.08;97650.09;10544374;28;20501;-75
2023/05/16 16:08:40;;;;;;;7.30;4.70;;;;;;;14.40;54.98;97658.31;10522038;28;20067;-72
2023/05/16 16:14:01;;;;;;;6.53;4.72;;;;;;;14.18;55.32;97657.88;10556438;28;20067;-73
2023/05/16 16:19:22;;;;;;;8.98;4.95;;;;;;;14.25;55.85;97664.53;10570526;28;20119;-70
2023/05/16 16:24:43;;;;;;;8.07;4.72;;;;;;;14.06;56.26;97654.44;10569496;28;20074;-70
2023/05/16 16:30:04;;;;;;;6.88;5.00;;;;;;;13.87;56.68;97666.03;10541455;28;20076;-73
2023/05/16 16:35:25;;;;;;;7.45;4.82;;;;;;;13.68;57.55;97664.34;10552400;28;20020;-79
2023/05/16 16:40:47;;;;;;;9.02;6.18;;;;;;;13.34;58.10;97666.72;10524236;28;20044;-77
2023/05/16 16:46:07;;;;;;;6.90;4.80;;;;;;;13.24;58.73;97652.16;10548605;28;20036;-76
2023/05/16 16:51:30;;;;;;;5.13;4.25;;;;;;;13.26;59.25;97657.88;10538435;28;20044;-77
2023/05/16 16:56:51;;;;;;;6.30;4.60;;;;;;;13.16;59.21;97660.06;10515982;28;20048;-71
2023/05/16 17:02:12;;;;;;;7.22;4.13;;;;;;;13.12;59.71;97663.38;10540025;28;20064;-69
2023/05/16 17:07:34;;;;;;;7.20;4.05;;;;;;;13.13;59.43;97670.44;10512975;28;20043;-68
2023/05/16 17:12:54;;;;;;;6.38;3.75;;;;;;;13.13;59.68;97675.31;10527331;28;20527;-69
2023/05/16 17:18:15;;;;;;;8.10;4.10;;;;;;;13.14;59.51;97688.00;10541244;28;20047;-71
2023/05/16 17:23:36;;;;;;;6.95;4.03;;;;;;;12.99;59.50;97689.25;10526976;28;20068;-72
2023/05/16 17:28:59;;;;;;;7.43;4.22;;;;;;;12.86;59.66;97699.03;10544128;28;20546;-76
2023/05/16 17:34:19;;;;;;;6.05;3.65;;;;;;;12.69;60.51;97695.91;10546297;28;20127;-74
2023/05/16 17:39:40;;;;;;;7.13;3.70;;;;;;;12.61;60.82;97707.34;10543693;28;20040;-71
2023/05/16 17:45:03;;;;;;;4.75;3.25;;;;;;;12.52;61.09;97708.22;10539515;28;20060;-70
2023/05/16 17:50:24;;;;;;;5.37;3.20;;;;;;;12.29;61.44;97709.69;10512336;28;20071;-71
2023/05/16 17:55:48;;;;;;;5.67;3.13;;;;;;;12.22;62.11;97707.13;10522042;28;20700;-71
2023/05/16 18:01:09;;;;;;;8.00;3.28;;;;;;;12.14;62.53;97721.34;10522487;28;20540;-71
2023/05/16 18:06:30;;;;;;;5.30;3.40;;;;;;;12.02;62.79;97723.41;10525140;28;20048;-71
2023/05/16 18:11:51;;;;;;;6.13;3.40;;;;;;;11.95;63.24;97727.16;10511164;28;20698;-71
2023/05/16 18:17:12;;;;;;;6.35;2.53;;;;;;;11.91;63.54;97736.03;10538848;28;20181;-69
2023/05/16 18:22:36;;;;;;;7.18;2.45;;;;;;;11.92;63.67;97726.31;10550327;28;20055;-77
2023/05/16 18:27:57;;;;;;;4.22;2.10;;;;;;;11.87;63.57;97730.22;10534660;28;20082;-70
2023/05/16 18:33:18;;;;;;;7.13;2.92;;;;;;;11.84;63.62;97747.44;10542364;28;20086;-71
2023/05/16 18:38:39;;;;;;;5.97;2.13;;;;;;;11.76;63.06;97744.84;10538417;28;20060;-71
2023/05/16 18:44:00;;;;;;;3.92;1.75;;;;;;;11.70;63.09;97745.22;10542431;28;20044;-71
2023/05/16 18:49:21;;;;;;;3.85;1.63;;;;;;;11.65;63.56;97749.06;10566426;28;20502;-71
2023/05/16 18:54:42;;;;;;;6.35;1.73;;;;;;;11.67;63.20;97752.00;10552101;28;20111;-71
2023/05/16 19:00:03;;;;;;;6.05;1.83;;;;;;;11.62;63.29;97764.28;10564778;28;20063;-71
2023/05/16 19:05:27;;;;;;;4.80;2.10;;;;;;;11.54;62.91;97758.16;10523603;28;20197;-71
2023/05/16 19:10:49;;;;;;;6.43;1.60;;;;;;;11.53;63.36;97750.38;10524722;28;20191;-71
2023/05/16 19:16:10;;;;;;;5.50;1.70;;;;;;;11.54;63.51;97766.53;10523609;28;20076;-71
2023/05/16 19:21:31;;;;;;;4.28;1.75;;;;;;;11.42;63.18;97762.97;10537070;28;20036;-71
2023/05/16 19:26:52;;;;;;;4.03;1.60;;;;;;;11.43;62.84;97762.38;10527000;28;20068;-72
2023/05/16 19:32:13;;;;;;;4.80;1.67;;;;;;;11.31;63.24;97763.66;10525835;28;20048;-71
2023/05/16 19:37:34;;;;;;;7.40;1.90;;;;;;;11.30;63.01;97765.00;10527600;28;20134;-71
2023/05/16 19:42:54;;;;;;;4.22;1.50;;;;;;;11.28;63.33;97762.03;10527126;28;20044;-71
2023/05/16 19:48:15;;;;;;;3.72;1.23;;;;;;;11.24;63.51;97773.69;10541598;28;20115;-71
2023/05/16 19:53:36;;;;;;;4.85;1.40;;;;;;;11.28;63.45;97773.22;10513032;28;20055;-71
2023/05/16 19:58:56;;;;;;;6.57;1.83;;;;;;;11.30;63.44;97778.97;10541183;28;20115;-72
2023/05/16 20:04:17;;;;;;;4.35;1.63;;;;;;;11.27;63.65;97778.09;10538714;28;20537;-72
2023/05/16 20:09:37;;;;;;;4.85;1.50;;;;;;;11.27;63.51;97777.34;10538303;28;20122;-71
2023/05/16 20:14:58;;;;;;;6.40;1.60;;;;;;;11.27;63.69;97782.94;10540906;28;20473;-71
2023/05/16 20:20:19;;;;;;;7.18;1.55;;;;;;;11.22;63.50;97784.75;10509927;28;20161;-72
2023/05/16 20:25:39;;;;;;;5.03;1.38;;;;;;;11.15;63.63;97780.81;10539295;28;20115;-71
2023/05/16 20:31:00;;;;;;;5.00;1.42;;;;;;;11.17;63.72;97791.38;10537381;28;20181;-71
2023/05/16 20:36:21;;;;;;;3.17;1.08;;;;;;;11.15;64.09;97789.19;10525649;28;20039;-71
2023/05/16 20:41:42;;;;;;;4.60;1.42;;;;;;;11.19;63.71;97788.72;10538020;28;20121;-75
2023/05/16 20:47:04;;;;;;;10.13;1.60;;;;;;;11.13;63.74;97786.28;10517426;28;20060;-75
2023/05/16 20:52:26;;;;;;;8.77;1.67;;;;;;;11.14;64.18;97787.75;10512186;28;20111;-74
2023/05/16 20:57:47;;;;;;;9.40;2.10;;;;;;;11.13;63.80;97777.91;10508489;28;20521;-74
2023/05/16 21:03:11;;;;;;;3.72;1.25;;;;;;;11.09;64.67;97780.41;10516989;28;20123;-76
2023/05/16 21:08:31;;;;;;;6.27;2.13;;;;;;;11.09;64.96;97790.84;10537965;28;20119;-75
2023/05/16 21:13:52;;;;;;;7.78;1.60;;;;;;;11.10;64.83;97787.47;10509447;28;20523;-75
2023/05/16 21:19:13;;;;;;;7.78;1.30;;;;;;;10.96;65.20;97786.53;10523479;28;20584;-75
2023/05/16 21:24:36;;;;;;;7.47;1.45;;;;;;;10.94;65.89;97789.19;10518248;28;20118;-75
2023/05/16 21:29:56;;;;;;;7.55;1.50;;;;;;;10.97;66.03;97790.78;10525200;28;20115;-75
2023/05/16 21:35:17;;;;;;;5.30;1.40;;;;;;;10.91;66.60;97793.19;10517175;28;20119;-75
2023/05/16 21:40:38;;;;;;;5.60;1.42;;;;;;;10.88;66.91;97791.56;10517292;28;20102;-75
2023/05/16 21:45:59;;;;;;;4.30;1.52;;;;;;;10.93;67.06;97795.38;10536479;28;20044;-75
2023/05/16 21:51:19;;;;;;;6.30;1.63;;;;;;;10.89;67.08;97802.13;10536405;28;20122;-76
2023/05/16 21:56:40;;;;;;;7.28;1.60;;;;;;;10.96;67.73;97805.34;10507566;28;20492;-75
2023/05/16 22:02:03;;;;;;;7.18;1.50;;;;;;;11.07;68.09;97805.41;10493712;28;20513;-75
2023/05/16 22:07:27;;;;;;;7.10;1.45;;;;;;;11.06;67.63;97806.03;10540049;28;20051;-75
2023/05/16 22:12:48;;;;;;;4.80;1.75;;;;;;;11.07;67.97;97807.47;10526157;28;20064;-75
2023/05/16 22:18:10;;;;;;;7.20;1.58;;;;;;;10.94;68.15;97819.91;10511852;28;20067;-75
2023/05/16 22:23:31;;;;;;;5.25;1.45;;;;;;;10.96;68.35;97822.09;10525414;28;20040;-76
2023/05/16 22:28:51;;;;;;;6.75;1.50;;;;;;;10.95;68.46;97826.22;10525287;28;20072;-75
2023/05/16 22:34:14;;;;;;;5.13;1.50;;;;;;;11.02;68.49;97830.91;10525312;28;20448;-75
2023/05/16 22:39:35;;;;;;;9.40;2.08;;;;;;;11.01;68.75;97827.38;10538976;28;20401;-75
2023/05/16 22:44:55;;;;;;;9.07;1.75;;;;;;;11.01;68.92;97823.84;10524935;28;20119;-75
2023/05/16 22:50:16;;;;;;;8.23;2.08;;;;;;;11.08;68.84;97822.91;10524871;28;20048;-75
2023/05/16 22:55:37;;;;;;;6.07;1.30;;;;;;;11.06;69.08;97829.09;10524879;28;20064;-75
2023/05/16 23:01:00;;;;;;;10.60;1.77;;;;;;;11.00;67.97;97827.94;10530219;28;20064;-75
2023/05/16 23:06:20;;;;;;;6.85;1.80;;;;;;;10.86;68.53;97836.84;10533268;28;20115;-75
2023/05/16 23:11:41;;;;;;;7.05;1.33;;;;;;;10.92;68.86;97842.13;10518642;28;20063;-75
2023/05/16 23:17:02;;;;;;;8.00;1.75;;;;;;;10.94;68.48;97831.09;10532510;28;20059;-75
2023/05/16 23:22:23;;;;;;;5.45;1.30;;;;;;;10.86;67.01;97831.25;10520572;28;20060;-75
2023/05/16 23:27:43;;;;;;;5.07;1.00;;;;;;;10.83;66.73;97845.69;10519131;28;20434;-75
2023/05/16 23:33:04;;;;;;;4.90;0.70;;;;;;;10.67;64.72;97844.56;10532608;28;20116;-75
2023/05/16 23:38:26;;;;;;;3.53;0.50;;;;;;;10.63;64.00;97842.25;10531996;28;20060;-76
2023/05/16 23:43:46;;;;;;;3.10;0.50;;;;;;;10.68;60.65;97851.63;10545837;28;20064;-75
2023/05/16 23:49:07;;;;;;;5.57;0.50;;;;;;;10.53;59.02;97850.66;10545467;28;20506;-75
2023/05/16 23:54:28;;;;;;;1.88;0.35;;;;;;;10.54;57.67;97848.59;10544898;28;20067;-75
2023/05/16 23:59:48;;;;;;;4.57;0.45;;;;;;;10.59;57.39;97855.91;10530641;28;20047;-75
